sensor_id;sensor_type;location;lat;lon;timestamp;P1;P2;P0
51052;PMS5003;37093;37.716;-122.060;2023-07-22T00:01:53;34;21;
51052;PMS5003;37093;37.716;-122.060;2023-07-22T00:04:21;26;24;
51052;PMS5003;37093;37.716;-122.060;2023-07-22T00:06:49;25;19;
51052;PMS5003;37093;37.716;-122.060;2023-07-22T00:09:17;20;20;
51052;PMS5003;37093;37.716;-122.060;2023-07-22T00:11:45;21;18;
51052;PMS5003;37093;37.716;-122.060;2023-07-22T00:14:16;22;18;
51052;PMS5003;37093;37.716;-122.060;2023-07-22T00:16:44;23;22;
51052;PMS5003;37093;37.716;-122.060;2023-07-22T00:19:13;23;18;
51052;PMS5003;37093;37.716;-122.060;2023-07-22T00:21:41;20;20;
51052;PMS5003;37093;37.716;-122.060;2023-07-22T00:24:10;17;17;
51052;PMS5003;37093;37.716;-122.060;2023-07-22T00:26:38;23;18;
51052;PMS5003;37093;37.716;-122.060;2023-07-22T00:29:06;19;15;
51052;PMS5003;37093;37.716;-122.060;2023-07-22T00:31:34;27;16;
51052;PMS5003;37093;37.716;-122.060;2023-07-22T00:34:02;23;14;
51052;PMS5003;37093;37.716;-122.060;2023-07-22T00:36:30;16;15;
51052;PMS5003;37093;37.716;-122.060;2023-07-22T00:38:58;27;15;
51052;PMS5003;37093;37.716;-122.060;2023-07-22T00:41:27;18;15;
51052;PMS5003;37093;37.716;-122.060;2023-07-22T00:43:55;17;16;
51052;PMS5003;37093;37.716;-122.060;2023-07-22T00:46:23;19;15;
51052;PMS5003;37093;37.716;-122.060;2023-07-22T00:48:52;15;14;
51052;PMS5003;37093;37.716;-122.060;2023-07-22T00:51:20;15;11;
51052;PMS5003;37093;37.716;-122.060;2023-07-22T00:53:49;13;11;
51052;PMS5003;37093;37.716;-122.060;2023-07-22T00:56:17;13;9;
51052;PMS5003;37093;37.716;-122.060;2023-07-22T00:58:46;9;8;
51052;PMS5003;37093;37.716;-122.060;2023-07-22T01:01:15;13;11;
51052;PMS5003;37093;37.716;-122.060;2023-07-22T01:03:43;13;10;
51052;PMS5003;37093;37.716;-122.060;2023-07-22T01:06:12;15;11;
51052;PMS5003;37093;37.716;-122.060;2023-07-22T01:08:41;16;11;
51052;PMS5003;37093;37.716;-122.060;2023-07-22T01:11:09;13;10;
51052;PMS5003;37093;37.716;-122.060;2023-07-22T01:13:38;14;10;
51052;PMS5003;37093;37.716;-122.060;2023-07-22T01:16:06;9;9;
51052;PMS5003;37093;37.716;-122.060;2023-07-22T01:18:34;14;8;
51052;PMS5003;37093;37.716;-122.060;2023-07-22T01:21:04;11;9;
51052;PMS5003;37093;37.716;-122.060;2023-07-22T01:23:35;15;10;
51052;PMS5003;37093;37.716;-122.060;2023-07-22T01:26:05;16;7;
51052;PMS5003;37093;37.716;-122.060;2023-07-22T01:28:35;13;8;
51052;PMS5003;37093;37.716;-122.060;2023-07-22T01:31:03;9;9;
51052;PMS5003;37093;37.716;-122.060;2023-07-22T01:33:31;10;7;
51052;PMS5003;37093;37.716;-122.060;2023-07-22T01:36:01;7;7;
51052;PMS5003;37093;37.716;-122.060;2023-07-22T01:38:30;10;8;
51052;PMS5003;37093;37.716;-122.060;2023-07-22T01:40:58;16;10;
51052;PMS5003;37093;37.716;-122.060;2023-07-22T01:43:27;13;10;
51052;PMS5003;37093;37.716;-122.060;2023-07-22T01:45:55;8;7;
51052;PMS5003;37093;37.716;-122.060;2023-07-22T01:48:23;11;8;
51052;PMS5003;37093;37.716;-122.060;2023-07-22T01:50:52;12;9;
51052;PMS5003;37093;37.716;-122.060;2023-07-22T01:53:20;7;7;
51052;PMS5003;37093;37.716;-122.060;2023-07-22T01:55:49;10;8;
51052;PMS5003;37093;37.716;-122.060;2023-07-22T01:58:17;11;8;
51052;PMS5003;37093;37.716;-122.060;2023-07-22T02:00:49;14;10;
51052;PMS5003;37093;37.716;-122.060;2023-07-22T02:03:18;13;7;
51052;PMS5003;37093;37.716;-122.060;2023-07-22T02:05:46;10;7;
51052;PMS5003;37093;37.716;-122.060;2023-07-22T02:08:15;12;8;
51052;PMS5003;37093;37.716;-122.060;2023-07-22T02:10:43;9;9;
51052;PMS5003;37093;37.716;-122.060;2023-07-22T02:13:11;8;7;
51052;PMS5003;37093;37.716;-122.060;2023-07-22T02:15:41;7;6;
51052;PMS5003;37093;37.716;-122.060;2023-07-22T02:18:09;15;9;
51052;PMS5003;37093;37.716;-122.060;2023-07-22T02:20:37;10;7;
51052;PMS5003;37093;37.716;-122.060;2023-07-22T02:23:08;8;8;
51052;PMS5003;37093;37.716;-122.060;2023-07-22T02:25:38;12;8;
51052;PMS5003;37093;37.716;-122.060;2023-07-22T02:28:06;9;9;
51052;PMS5003;37093;37.716;-122.060;2023-07-22T02:30:34;9;8;
51052;PMS5003;37093;37.716;-122.060;2023-07-22T02:33:04;10;9;
51052;PMS5003;37093;37.716;-122.060;2023-07-22T02:35:32;17;6;
51052;PMS5003;37093;37.716;-122.060;2023-07-22T02:38:01;12;9;
51052;PMS5003;37093;37.716;-122.060;2023-07-22T02:40:29;9;7;
51052;PMS5003;37093;37.716;-122.060;2023-07-22T02:43:00;10;7;
51052;PMS5003;37093;37.716;-122.060;2023-07-22T02:45:28;14;9;
51052;PMS5003;37093;37.716;-122.060;2023-07-22T02:47:57;7;6;
51052;PMS5003;37093;37.716;-122.060;2023-07-22T02:50:25;6;5;
51052;PMS5003;37093;37.716;-122.060;2023-07-22T02:52:54;14;8;
51052;PMS5003;37093;37.716;-122.060;2023-07-22T02:55:22;15;7;
51052;PMS5003;37093;37.716;-122.060;2023-07-22T02:57:51;8;8;
51052;PMS5003;37093;37.716;-122.060;2023-07-22T03:00:19;12;7;
51052;PMS5003;37093;37.716;-122.060;2023-07-22T03:02:48;10;7;
51052;PMS5003;37093;37.716;-122.060;2023-07-22T03:05:17;10;7;
51052;PMS5003;37093;37.716;-122.060;2023-07-22T03:07:46;13;8;
51052;PMS5003;37093;37.716;-122.060;2023-07-22T03:10:15;10;8;
51052;PMS5003;37093;37.716;-122.060;2023-07-22T03:12:43;12;6;
51052;PMS5003;37093;37.716;-122.060;2023-07-22T03:15:12;11;7;
51052;PMS5003;37093;37.716;-122.060;2023-07-22T03:17:40;15;8;
51052;PMS5003;37093;37.716;-122.060;2023-07-22T03:20:09;10;8;
51052;PMS5003;37093;37.716;-122.060;2023-07-22T03:22:39;12;6;
51052;PMS5003;37093;37.716;-122.060;2023-07-22T03:25:08;7;6;
51052;PMS5003;37093;37.716;-122.060;2023-07-22T03:27:37;10;9;
51052;PMS5003;37093;37.716;-122.060;2023-07-22T03:30:06;8;8;
51052;PMS5003;37093;37.716;-122.060;2023-07-22T03:32:35;9;8;
51052;PMS5003;37093;37.716;-122.060;2023-07-22T03:35:03;11;8;
51052;PMS5003;37093;37.716;-122.060;2023-07-22T03:37:32;11;7;
51052;PMS5003;37093;37.716;-122.060;2023-07-22T03:40:01;18;8;
51052;PMS5003;37093;37.716;-122.060;2023-07-22T03:42:29;11;7;
51052;PMS5003;37093;37.716;-122.060;2023-07-22T03:44:58;11;7;
51052;PMS5003;37093;37.716;-122.060;2023-07-22T03:47:26;12;7;
51052;PMS5003;37093;37.716;-122.060;2023-07-22T03:49:55;12;10;
51052;PMS5003;37093;37.716;-122.060;2023-07-22T03:52:23;10;7;
51052;PMS5003;37093;37.716;-122.060;2023-07-22T03:54:52;9;8;
51052;PMS5003;37093;37.716;-122.060;2023-07-22T03:57:25;12;9;
51052;PMS5003;37093;37.716;-122.060;2023-07-22T03:59:53;9;7;
51052;PMS5003;37093;37.716;-122.060;2023-07-22T04:02:22;14;7;
51052;PMS5003;37093;37.716;-122.060;2023-07-22T04:04:52;15;10;
51052;PMS5003;37093;37.716;-122.060;2023-07-22T04:07:22;11;8;
51052;PMS5003;37093;37.716;-122.060;2023-07-22T04:09:50;17;10;
51052;PMS5003;37093;37.716;-122.060;2023-07-22T04:12:19;16;10;
51052;PMS5003;37093;37.716;-122.060;2023-07-22T04:14:47;10;9;
51052;PMS5003;37093;37.716;-122.060;2023-07-22T04:17:15;10;7;
51052;PMS5003;37093;37.716;-122.060;2023-07-22T04:19:44;11;8;
51052;PMS5003;37093;37.716;-122.060;2023-07-22T04:22:12;13;7;
51052;PMS5003;37093;37.716;-122.060;2023-07-22T04:24:40;8;7;
51052;PMS5003;37093;37.716;-122.060;2023-07-22T04:27:09;10;8;
51052;PMS5003;37093;37.716;-122.060;2023-07-22T04:29:38;19;10;
51052;PMS5003;37093;37.716;-122.060;2023-07-22T04:32:06;9;8;
51052;PMS5003;37093;37.716;-122.060;2023-07-22T04:34:35;18;7;
51052;PMS5003;37093;37.716;-122.060;2023-07-22T04:37:03;18;7;
51052;PMS5003;37093;37.716;-122.060;2023-07-22T04:39:31;10;8;
51052;PMS5003;37093;37.716;-122.060;2023-07-22T04:42:00;10;8;
51052;PMS5003;37093;37.716;-122.060;2023-07-22T04:44:28;10;9;
51052;PMS5003;37093;37.716;-122.060;2023-07-22T04:46:56;26;11;
51052;PMS5003;37093;37.716;-122.060;2023-07-22T04:49:25;13;7;
51052;PMS5003;37093;37.716;-122.060;2023-07-22T04:51:53;12;9;
51052;PMS5003;37093;37.716;-122.060;2023-07-22T04:54:22;15;10;
51052;PMS5003;37093;37.716;-122.060;2023-07-22T04:56:50;10;8;
51052;PMS5003;37093;37.716;-122.060;2023-07-22T04:59:19;9;7;
51052;PMS5003;37093;37.716;-122.060;2023-07-22T05:01:47;15;9;
51052;PMS5003;37093;37.716;-122.060;2023-07-22T05:04:15;11;7;
51052;PMS5003;37093;37.716;-122.060;2023-07-22T05:06:44;21;7;
51052;PMS5003;37093;37.716;-122.060;2023-07-22T05:09:12;9;7;
51052;PMS5003;37093;37.716;-122.060;2023-07-22T05:11:41;9;7;
51052;PMS5003;37093;37.716;-122.060;2023-07-22T05:14:09;18;11;
51052;PMS5003;37093;37.716;-122.060;2023-07-22T05:16:38;13;7;
51052;PMS5003;37093;37.716;-122.060;2023-07-22T05:19:06;12;8;
51052;PMS5003;37093;37.716;-122.060;2023-07-22T05:21:35;14;8;
51052;PMS5003;37093;37.716;-122.060;2023-07-22T05:24:03;7;7;
51052;PMS5003;37093;37.716;-122.060;2023-07-22T05:26:32;10;5;
51052;PMS5003;37093;37.716;-122.060;2023-07-22T05:29:00;13;10;
51052;PMS5003;37093;37.716;-122.060;2023-07-22T05:31:29;8;7;
51052;PMS5003;37093;37.716;-122.060;2023-07-22T05:33:57;10;8;
51052;PMS5003;37093;37.716;-122.060;2023-07-22T05:36:26;10;6;
51052;PMS5003;37093;37.716;-122.060;2023-07-22T05:38:54;17;10;
51052;PMS5003;37093;37.716;-122.060;2023-07-22T05:41:23;10;9;
51052;PMS5003;37093;37.716;-122.060;2023-07-22T05:43:52;9;8;
51052;PMS5003;37093;37.716;-122.060;2023-07-22T05:46:21;16;10;
51052;PMS5003;37093;37.716;-122.060;2023-07-22T05:48:50;9;6;
51052;PMS5003;37093;37.716;-122.060;2023-07-22T05:51:18;11;8;
51052;PMS5003;37093;37.716;-122.060;2023-07-22T05:53:46;9;8;
51052;PMS5003;37093;37.716;-122.060;2023-07-22T05:56:15;10;7;
51052;PMS5003;37093;37.716;-122.060;2023-07-22T05:58:43;14;8;
51052;PMS5003;37093;37.716;-122.060;2023-07-22T06:01:11;10;7;
51052;PMS5003;37093;37.716;-122.060;2023-07-22T06:03:39;21;8;
51052;PMS5003;37093;37.716;-122.060;2023-07-22T06:06:08;7;6;
51052;PMS5003;37093;37.716;-122.060;2023-07-22T06:08:37;8;6;
51052;PMS5003;37093;37.716;-122.060;2023-07-22T06:11:05;17;10;
51052;PMS5003;37093;37.716;-122.060;2023-07-22T06:13:33;11;7;
51052;PMS5003;37093;37.716;-122.060;2023-07-22T06:16:01;9;7;
51052;PMS5003;37093;37.716;-122.060;2023-07-22T06:18:29;12;9;
51052;PMS5003;37093;37.716;-122.060;2023-07-22T06:20:58;15;8;
51052;PMS5003;37093;37.716;-122.060;2023-07-22T06:23:26;6;5;
51052;PMS5003;37093;37.716;-122.060;2023-07-22T06:25:54;11;8;
51052;PMS5003;37093;37.716;-122.060;2023-07-22T06:28:23;9;8;
51052;PMS5003;37093;37.716;-122.060;2023-07-22T06:30:51;11;7;
51052;PMS5003;37093;37.716;-122.060;2023-07-22T06:33:20;7;7;
51052;PMS5003;37093;37.716;-122.060;2023-07-22T06:35:48;10;8;
51052;PMS5003;37093;37.716;-122.060;2023-07-22T06:38:17;11;9;
51052;PMS5003;37093;37.716;-122.060;2023-07-22T06:40:45;8;7;
51052;PMS5003;37093;37.716;-122.060;2023-07-22T06:43:14;14;8;
51052;PMS5003;37093;37.716;-122.060;2023-07-22T06:45:42;18;5;
51052;PMS5003;37093;37.716;-122.060;2023-07-22T06:48:10;8;5;
51052;PMS5003;37093;37.716;-122.060;2023-07-22T06:50:38;12;8;
51052;PMS5003;37093;37.716;-122.060;2023-07-22T06:53:07;10;7;
51052;PMS5003;37093;37.716;-122.060;2023-07-22T06:55:35;15;7;
51052;PMS5003;37093;37.716;-122.060;2023-07-22T06:58:04;13;9;
51052;PMS5003;37093;37.716;-122.060;2023-07-22T07:01:13;8;8;
51052;PMS5003;37093;37.716;-122.060;2023-07-22T07:03:42;9;6;
51052;PMS5003;37093;37.716;-122.060;2023-07-22T07:06:11;16;11;
51052;PMS5003;37093;37.716;-122.060;2023-07-22T07:08:40;20;9;
51052;PMS5003;37093;37.716;-122.060;2023-07-22T07:11:08;10;10;
51052;PMS5003;37093;37.716;-122.060;2023-07-22T07:13:36;11;8;
51052;PMS5003;37093;37.716;-122.060;2023-07-22T07:16:20;12;9;
51052;PMS5003;37093;37.716;-122.060;2023-07-22T07:18:50;11;8;
51052;PMS5003;37093;37.716;-122.060;2023-07-22T07:21:19;13;8;
51052;PMS5003;37093;37.716;-122.060;2023-07-22T07:23:48;12;8;
51052;PMS5003;37093;37.716;-122.060;2023-07-22T07:26:17;9;7;
51052;PMS5003;37093;37.716;-122.060;2023-07-22T07:28:45;11;6;
51052;PMS5003;37093;37.716;-122.060;2023-07-22T07:31:14;13;8;
51052;PMS5003;37093;37.716;-122.060;2023-07-22T07:33:42;13;7;
51052;PMS5003;37093;37.716;-122.060;2023-07-22T07:36:10;25;8;
51052;PMS5003;37093;37.716;-122.060;2023-07-22T07:38:39;11;8;
51052;PMS5003;37093;37.716;-122.060;2023-07-22T07:41:07;16;7;
51052;PMS5003;37093;37.716;-122.060;2023-07-22T07:43:37;10;8;
51052;PMS5003;37093;37.716;-122.060;2023-07-22T07:46:14;25;9;
51052;PMS5003;37093;37.716;-122.060;2023-07-22T07:48:44;7;6;
51052;PMS5003;37093;37.716;-122.060;2023-07-22T07:51:13;12;8;
51052;PMS5003;37093;37.716;-122.060;2023-07-22T07:53:42;13;9;
51052;PMS5003;37093;37.716;-122.060;2023-07-22T07:56:12;14;8;
51052;PMS5003;37093;37.716;-122.060;2023-07-22T07:58:41;10;7;
51052;PMS5003;37093;37.716;-122.060;2023-07-22T08:01:11;13;9;
51052;PMS5003;37093;37.716;-122.060;2023-07-22T08:03:40;14;8;
51052;PMS5003;37093;37.716;-122.060;2023-07-22T08:06:09;22;7;
51052;PMS5003;37093;37.716;-122.060;2023-07-22T08:08:39;14;9;
51052;PMS5003;37093;37.716;-122.060;2023-07-22T08:11:09;14;8;
51052;PMS5003;37093;37.716;-122.060;2023-07-22T08:13:37;13;10;
51052;PMS5003;37093;37.716;-122.060;2023-07-22T08:16:06;10;6;
51052;PMS5003;37093;37.716;-122.060;2023-07-22T08:18:36;14;10;
51052;PMS5003;37093;37.716;-122.060;2023-07-22T08:21:05;14;8;
51052;PMS5003;37093;37.716;-122.060;2023-07-22T08:23:34;11;7;
51052;PMS5003;37093;37.716;-122.060;2023-07-22T08:26:03;11;6;
51052;PMS5003;37093;37.716;-122.060;2023-07-22T08:28:31;7;6;
51052;PMS5003;37093;37.716;-122.060;2023-07-22T08:31:00;9;9;
51052;PMS5003;37093;37.716;-122.060;2023-07-22T08:33:29;11;7;
51052;PMS5003;37093;37.716;-122.060;2023-07-22T08:35:57;7;7;
51052;PMS5003;37093;37.716;-122.060;2023-07-22T08:38:26;12;9;
51052;PMS5003;37093;37.716;-122.060;2023-07-22T08:40:54;17;9;
51052;PMS5003;37093;37.716;-122.060;2023-07-22T08:43:22;11;6;
51052;PMS5003;37093;37.716;-122.060;2023-07-22T08:45:51;10;9;
51052;PMS5003;37093;37.716;-122.060;2023-07-22T08:48:21;13;7;
51052;PMS5003;37093;37.716;-122.060;2023-07-22T08:50:54;16;9;
51052;PMS5003;37093;37.716;-122.060;2023-07-22T08:53:30;11;9;
51052;PMS5003;37093;37.716;-122.060;2023-07-22T08:55:59;9;8;
51052;PMS5003;37093;37.716;-122.060;2023-07-22T08:58:27;14;10;
51052;PMS5003;37093;37.716;-122.060;2023-07-22T09:00:56;8;7;
51052;PMS5003;37093;37.716;-122.060;2023-07-22T09:03:26;12;9;
51052;PMS5003;37093;37.716;-122.060;2023-07-22T09:05:54;21;9;
51052;PMS5003;37093;37.716;-122.060;2023-07-22T09:08:23;14;10;
51052;PMS5003;37093;37.716;-122.060;2023-07-22T09:10:52;11;8;
51052;PMS5003;37093;37.716;-122.060;2023-07-22T09:13:21;15;9;
51052;PMS5003;37093;37.716;-122.060;2023-07-22T09:15:51;25;11;
51052;PMS5003;37093;37.716;-122.060;2023-07-22T09:18:20;14;11;
51052;PMS5003;37093;37.716;-122.060;2023-07-22T09:20:49;10;7;
51052;PMS5003;37093;37.716;-122.060;2023-07-22T09:23:17;13;10;
51052;PMS5003;37093;37.716;-122.060;2023-07-22T09:26:08;10;10;
51052;PMS5003;37093;37.716;-122.060;2023-07-22T09:28:53;15;8;
51052;PMS5003;37093;37.716;-122.060;2023-07-22T09:31:23;14;10;
51052;PMS5003;37093;37.716;-122.060;2023-07-22T09:33:52;11;10;
51052;PMS5003;37093;37.716;-122.060;2023-07-22T09:36:20;13;12;
51052;PMS5003;37093;37.716;-122.060;2023-07-22T09:38:58;12;9;
51052;PMS5003;37093;37.716;-122.060;2023-07-22T09:41:27;10;9;
51052;PMS5003;37093;37.716;-122.060;2023-07-22T09:43:56;12;9;
51052;PMS5003;37093;37.716;-122.060;2023-07-22T09:46:30;12;11;
51052;PMS5003;37093;37.716;-122.060;2023-07-22T09:49:02;12;7;
51052;PMS5003;37093;37.716;-122.060;2023-07-22T09:51:35;14;9;
51052;PMS5003;37093;37.716;-122.060;2023-07-22T09:54:05;15;9;
51052;PMS5003;37093;37.716;-122.060;2023-07-22T09:56:43;12;7;
51052;PMS5003;37093;37.716;-122.060;2023-07-22T09:59:12;19;11;
51052;PMS5003;37093;37.716;-122.060;2023-07-22T10:01:41;12;9;
51052;PMS5003;37093;37.716;-122.060;2023-07-22T10:04:11;13;9;
51052;PMS5003;37093;37.716;-122.060;2023-07-22T10:06:42;15;12;
51052;PMS5003;37093;37.716;-122.060;2023-07-22T10:09:11;14;8;
51052;PMS5003;37093;37.716;-122.060;2023-07-22T10:11:40;15;11;
51052;PMS5003;37093;37.716;-122.060;2023-07-22T10:14:09;29;11;
51052;PMS5003;37093;37.716;-122.060;2023-07-22T10:16:38;13;12;
51052;PMS5003;37093;37.716;-122.060;2023-07-22T10:19:06;11;10;
51052;PMS5003;37093;37.716;-122.060;2023-07-22T10:21:36;22;9;
51052;PMS5003;37093;37.716;-122.060;2023-07-22T10:24:06;15;10;
51052;PMS5003;37093;37.716;-122.060;2023-07-22T10:26:35;13;12;
51052;PMS5003;37093;37.716;-122.060;2023-07-22T10:29:06;13;10;
51052;PMS5003;37093;37.716;-122.060;2023-07-22T10:31:36;15;10;
51052;PMS5003;37093;37.716;-122.060;2023-07-22T10:34:04;8;7;
51052;PMS5003;37093;37.716;-122.060;2023-07-22T10:36:32;12;8;
51052;PMS5003;37093;37.716;-122.060;2023-07-22T10:39:03;14;9;
51052;PMS5003;37093;37.716;-122.060;2023-07-22T10:41:32;12;8;
51052;PMS5003;37093;37.716;-122.060;2023-07-22T10:44:05;15;11;
51052;PMS5003;37093;37.716;-122.060;2023-07-22T10:46:37;8;8;
51052;PMS5003;37093;37.716;-122.060;2023-07-22T10:49:09;14;10;
51052;PMS5003;37093;37.716;-122.060;2023-07-22T10:51:38;16;12;
51052;PMS5003;37093;37.716;-122.060;2023-07-22T10:54:10;13;10;
51052;PMS5003;37093;37.716;-122.060;2023-07-22T10:56:40;13;11;
51052;PMS5003;37093;37.716;-122.060;2023-07-22T10:59:10;17;14;
51052;PMS5003;37093;37.716;-122.060;2023-07-22T11:01:39;14;12;
51052;PMS5003;37093;37.716;-122.060;2023-07-22T11:04:14;22;12;
51052;PMS5003;37093;37.716;-122.060;2023-07-22T11:06:54;17;9;
51052;PMS5003;37093;37.716;-122.060;2023-07-22T11:09:54;21;11;
51052;PMS5003;37093;37.716;-122.060;2023-07-22T11:12:22;11;9;
51052;PMS5003;37093;37.716;-122.060;2023-07-22T11:14:54;9;7;
51052;PMS5003;37093;37.716;-122.060;2023-07-22T11:17:30;15;10;
51052;PMS5003;37093;37.716;-122.060;2023-07-22T11:20:00;21;11;
51052;PMS5003;37093;37.716;-122.060;2023-07-22T11:22:28;11;9;
51052;PMS5003;37093;37.716;-122.060;2023-07-22T11:24:57;11;11;
51052;PMS5003;37093;37.716;-122.060;2023-07-22T11:27:26;16;12;
51052;PMS5003;37093;37.716;-122.060;2023-07-22T11:29:57;14;10;
51052;PMS5003;37093;37.716;-122.060;2023-07-22T11:32:25;15;10;
51052;PMS5003;37093;37.716;-122.060;2023-07-22T11:34:53;17;12;
51052;PMS5003;37093;37.716;-122.060;2023-07-22T11:37:22;12;11;
51052;PMS5003;37093;37.716;-122.060;2023-07-22T11:39:50;24;13;
51052;PMS5003;37093;37.716;-122.060;2023-07-22T11:42:19;17;14;
51052;PMS5003;37093;37.716;-122.060;2023-07-22T11:44:47;19;12;
51052;PMS5003;37093;37.716;-122.060;2023-07-22T11:47:15;17;9;
51052;PMS5003;37093;37.716;-122.060;2023-07-22T11:49:47;13;10;
51052;PMS5003;37093;37.716;-122.060;2023-07-22T11:52:16;15;10;
51052;PMS5003;37093;37.716;-122.060;2023-07-22T11:54:45;16;10;
51052;PMS5003;37093;37.716;-122.060;2023-07-22T11:57:15;15;10;
51052;PMS5003;37093;37.716;-122.060;2023-07-22T11:59:46;14;8;
51052;PMS5003;37093;37.716;-122.060;2023-07-22T12:02:15;15;11;
51052;PMS5003;37093;37.716;-122.060;2023-07-22T12:04:51;27;12;
51052;PMS5003;37093;37.716;-122.060;2023-07-22T12:07:24;12;10;
51052;PMS5003;37093;37.716;-122.060;2023-07-22T12:09:54;15;9;
51052;PMS5003;37093;37.716;-122.060;2023-07-22T12:12:31;13;9;
51052;PMS5003;37093;37.716;-122.060;2023-07-22T12:15:03;16;10;
51052;PMS5003;37093;37.716;-122.060;2023-07-22T12:17:44;13;9;
51052;PMS5003;37093;37.716;-122.060;2023-07-22T12:20:14;13;8;
51052;PMS5003;37093;37.716;-122.060;2023-07-22T12:22:43;15;9;
51052;PMS5003;37093;37.716;-122.060;2023-07-22T12:25:12;17;13;
51052;PMS5003;37093;37.716;-122.060;2023-07-22T12:27:40;20;10;
51052;PMS5003;37093;37.716;-122.060;2023-07-22T12:30:08;15;9;
51052;PMS5003;37093;37.716;-122.060;2023-07-22T12:32:37;17;10;
51052;PMS5003;37093;37.716;-122.060;2023-07-22T12:35:06;15;11;
51052;PMS5003;37093;37.716;-122.060;2023-07-22T12:37:35;9;8;
51052;PMS5003;37093;37.716;-122.060;2023-07-22T12:40:04;10;8;
51052;PMS5003;37093;37.716;-122.060;2023-07-22T12:42:33;15;10;
51052;PMS5003;37093;37.716;-122.060;2023-07-22T12:45:02;11;8;
51052;PMS5003;37093;37.716;-122.060;2023-07-22T12:47:31;14;10;
51052;PMS5003;37093;37.716;-122.060;2023-07-22T12:50:00;11;10;
51052;PMS5003;37093;37.716;-122.060;2023-07-22T12:52:28;15;10;
51052;PMS5003;37093;37.716;-122.060;2023-07-22T12:54:57;11;7;
51052;PMS5003;37093;37.716;-122.060;2023-07-22T12:57:25;11;8;
51052;PMS5003;37093;37.716;-122.060;2023-07-22T12:59:53;14;12;
51052;PMS5003;37093;37.716;-122.060;2023-07-22T13:02:22;11;7;
51052;PMS5003;37093;37.716;-122.060;2023-07-22T13:04:50;29;13;
51052;PMS5003;37093;37.716;-122.060;2023-07-22T13:07:18;15;9;
51052;PMS5003;37093;37.716;-122.060;2023-07-22T13:09:46;23;11;
51052;PMS5003;37093;37.716;-122.060;2023-07-22T13:12:14;14;12;
51052;PMS5003;37093;37.716;-122.060;2023-07-22T13:14:43;15;10;
51052;PMS5003;37093;37.716;-122.060;2023-07-22T13:17:13;18;9;
51052;PMS5003;37093;37.716;-122.060;2023-07-22T13:19:41;10;8;
51052;PMS5003;37093;37.716;-122.060;2023-07-22T13:22:09;11;10;
51052;PMS5003;37093;37.716;-122.060;2023-07-22T13:24:38;8;8;
51052;PMS5003;37093;37.716;-122.060;2023-07-22T13:27:06;14;10;
51052;PMS5003;37093;37.716;-122.060;2023-07-22T13:29:34;15;10;
51052;PMS5003;37093;37.716;-122.060;2023-07-22T13:32:03;13;9;
51052;PMS5003;37093;37.716;-122.060;2023-07-22T13:34:32;28;14;
51052;PMS5003;37093;37.716;-122.060;2023-07-22T13:37:01;13;9;
51052;PMS5003;37093;37.716;-122.060;2023-07-22T13:39:29;17;14;
51052;PMS5003;37093;37.716;-122.060;2023-07-22T13:41:57;10;10;
51052;PMS5003;37093;37.716;-122.060;2023-07-22T13:44:26;16;12;
51052;PMS5003;37093;37.716;-122.060;2023-07-22T13:46:54;16;9;
51052;PMS5003;37093;37.716;-122.060;2023-07-22T13:49:22;13;9;
51052;PMS5003;37093;37.716;-122.060;2023-07-22T13:51:51;15;11;
51052;PMS5003;37093;37.716;-122.060;2023-07-22T13:54:19;13;10;
51052;PMS5003;37093;37.716;-122.060;2023-07-22T13:56:47;15;10;
51052;PMS5003;37093;37.716;-122.060;2023-07-22T13:59:16;14;10;
51052;PMS5003;37093;37.716;-122.060;2023-07-22T14:01:44;15;11;
51052;PMS5003;37093;37.716;-122.060;2023-07-22T14:04:12;17;10;
51052;PMS5003;37093;37.716;-122.060;2023-07-22T14:06:40;14;9;
51052;PMS5003;37093;37.716;-122.060;2023-07-22T14:09:09;12;8;
51052;PMS5003;37093;37.716;-122.060;2023-07-22T14:11:37;17;10;
51052;PMS5003;37093;37.716;-122.060;2023-07-22T14:14:05;25;11;
51052;PMS5003;37093;37.716;-122.060;2023-07-22T14:16:35;18;11;
51052;PMS5003;37093;37.716;-122.060;2023-07-22T14:19:04;14;11;
51052;PMS5003;37093;37.716;-122.060;2023-07-22T14:21:32;13;9;
51052;PMS5003;37093;37.716;-122.060;2023-07-22T14:24:01;14;13;
51052;PMS5003;37093;37.716;-122.060;2023-07-22T14:26:29;12;9;
51052;PMS5003;37093;37.716;-122.060;2023-07-22T14:28:58;18;10;
51052;PMS5003;37093;37.716;-122.060;2023-07-22T14:31:27;13;10;
51052;PMS5003;37093;37.716;-122.060;2023-07-22T14:33:55;14;11;
51052;PMS5003;37093;37.716;-122.060;2023-07-22T14:36:23;13;11;
51052;PMS5003;37093;37.716;-122.060;2023-07-22T14:38:51;15;12;
51052;PMS5003;37093;37.716;-122.060;2023-07-22T14:41:19;18;11;
51052;PMS5003;37093;37.716;-122.060;2023-07-22T14:43:48;16;10;
51052;PMS5003;37093;37.716;-122.060;2023-07-22T14:46:17;16;15;
51052;PMS5003;37093;37.716;-122.060;2023-07-22T14:48:45;14;10;
51052;PMS5003;37093;37.716;-122.060;2023-07-22T14:51:13;13;9;
51052;PMS5003;37093;37.716;-122.060;2023-07-22T14:53:41;25;9;
51052;PMS5003;37093;37.716;-122.060;2023-07-22T14:56:10;14;9;
51052;PMS5003;37093;37.716;-122.060;2023-07-22T14:58:38;16;8;
51052;PMS5003;37093;37.716;-122.060;2023-07-22T15:01:07;10;9;
51052;PMS5003;37093;37.716;-122.060;2023-07-22T15:03:37;10;8;
51052;PMS5003;37093;37.716;-122.060;2023-07-22T15:06:05;19;12;
51052;PMS5003;37093;37.716;-122.060;2023-07-22T15:08:34;9;8;
51052;PMS5003;37093;37.716;-122.060;2023-07-22T15:11:02;12;10;
51052;PMS5003;37093;37.716;-122.060;2023-07-22T15:13:31;16;9;
51052;PMS5003;37093;37.716;-122.060;2023-07-22T15:15:59;19;8;
51052;PMS5003;37093;37.716;-122.060;2023-07-22T15:18:27;12;9;
51052;PMS5003;37093;37.716;-122.060;2023-07-22T15:20:57;15;9;
51052;PMS5003;37093;37.716;-122.060;2023-07-22T15:23:25;11;7;
51052;PMS5003;37093;37.716;-122.060;2023-07-22T15:25:54;12;10;
51052;PMS5003;37093;37.716;-122.060;2023-07-22T15:28:22;16;10;
51052;PMS5003;37093;37.716;-122.060;2023-07-22T15:30:50;14;8;
51052;PMS5003;37093;37.716;-122.060;2023-07-22T15:33:20;9;7;
51052;PMS5003;37093;37.716;-122.060;2023-07-22T15:35:49;9;8;
51052;PMS5003;37093;37.716;-122.060;2023-07-22T15:38:17;14;10;
51052;PMS5003;37093;37.716;-122.060;2023-07-22T15:40:46;13;9;
51052;PMS5003;37093;37.716;-122.060;2023-07-22T15:43:14;11;10;
51052;PMS5003;37093;37.716;-122.060;2023-07-22T15:45:42;10;9;
51052;PMS5003;37093;37.716;-122.060;2023-07-22T15:48:11;16;10;
51052;PMS5003;37093;37.716;-122.060;2023-07-22T15:50:39;13;11;
51052;PMS5003;37093;37.716;-122.060;2023-07-22T15:53:07;10;8;
51052;PMS5003;37093;37.716;-122.060;2023-07-22T15:55:36;11;7;